Time;durP1;ratioP1;P1;durP2;ratioP2;P2;SDS_P1;SDS_P2;PMS_P1;PMS_P2;Temp;Humidity;BMP_temperature;BMP_pressure;BME280_temperature;BME280_humidity;BME280_pressure;Samples;Min_cycle;Max_cycle;Signal;HPM_P1;HPM_P2
2022/08/16 00:00:44;;;;;;;1.17;0.70;;;;;;;18.59;65.34;93517.13;5045566;28;20194;-70
2022/08/16 00:03:28;;;;;;;0.80;0.70;;;;;;;18.46;64.47;93518.06;5045926;28;20202;-70
2022/08/16 00:06:12;;;;;;;1.70;0.80;;;;;;;18.57;64.54;93522.75;5049609;28;20225;-71
2022/08/16 00:08:56;;;;;;;1.47;0.80;;;;;;;18.66;63.85;93527.31;5048784;28;20198;-71
2022/08/16 00:11:43;;;;;;;0.70;0.70;;;;;;;18.45;64.68;93519.47;5036573;28;20221;-71
2022/08/16 00:14:30;;;;;;;1.37;0.73;;;;;;;18.38;64.91;93520.63;5034115;28;20234;-71
2022/08/16 00:17:15;;;;;;;0.70;0.70;;;;;;;18.07;65.61;93516.69;5025373;28;20314;-72
2022/08/16 00:19:59;;;;;;;0.90;0.90;;;;;;;18.26;65.86;93514.50;5039234;28;20569;-71
2022/08/16 00:22:43;;;;;;;0.80;0.80;;;;;;;18.05;66.42;93510.19;5019014;28;20285;-72
2022/08/16 00:25:28;;;;;;;0.70;0.70;;;;;;;18.07;66.86;93519.53;5044056;28;20206;-72
2022/08/16 00:28:12;;;;;;;1.00;1.00;;;;;;;18.19;66.75;93514.28;5057988;28;20682;-70
2022/08/16 00:30:56;;;;;;;2.30;0.70;;;;;;;18.16;67.01;93512.75;5031819;28;20621;-70
2022/08/16 00:33:40;;;;;;;1.80;0.87;;;;;;;18.21;66.80;93524.25;5031617;28;20603;-71
2022/08/16 00:36:24;;;;;;;3.17;1.10;;;;;;;18.13;67.37;93513.34;5041436;28;20198;-71
2022/08/16 00:39:08;;;;;;;1.20;0.90;;;;;;;18.09;67.83;93513.91;5040114;28;20224;-70
2022/08/16 00:41:53;;;;;;;0.93;0.80;;;;;;;17.97;68.63;93513.44;5026849;28;20203;-71
2022/08/16 00:44:41;;;;;;;1.00;0.83;;;;;;;17.81;69.11;93507.19;5022607;28;20198;-71
2022/08/16 00:47:25;;;;;;;1.03;0.87;;;;;;;17.83;69.38;93504.44;5033333;28;20199;-71
2022/08/16 00:50:10;;;;;;;0.90;0.80;;;;;;;17.82;69.21;93508.66;5024122;28;20202;-71
2022/08/16 00:52:54;;;;;;;0.90;0.77;;;;;;;17.72;69.01;93513.91;5030894;28;20659;-71
2022/08/16 00:55:43;;;;;;;0.70;0.70;;;;;;;17.85;68.66;93513.00;5048483;28;20659;-71
2022/08/16 00:58:31;;;;;;;1.70;0.97;;;;;;;17.89;68.59;93510.34;5042068;28;20203;-71
2022/08/16 01:01:17;;;;;;;1.10;0.83;;;;;;;18.15;67.88;93510.56;5025519;28;20584;-71
2022/08/16 01:04:02;;;;;;;0.50;0.50;;;;;;;18.19;67.44;93511.44;5039639;28;20226;-71
2022/08/16 01:06:48;;;;;;;0.93;0.93;;;;;;;18.33;66.75;93508.38;5047607;28;20206;-71
2022/08/16 01:09:36;;;;;;;1.57;1.00;;;;;;;18.40;66.87;93520.66;5047181;28;20206;-71
2022/08/16 01:12:20;;;;;;;1.10;0.90;;;;;;;18.27;67.51;93518.81;5048355;28;20582;-71
2022/08/16 01:15:05;;;;;;;1.17;1.10;;;;;;;18.30;66.64;93520.31;5027164;28;20231;-71
2022/08/16 01:17:50;;;;;;;1.50;0.87;;;;;;;18.17;68.50;93514.22;5033072;28;20201;-71
2022/08/16 01:20:41;;;;;;;1.17;1.07;;;;;;;18.25;68.38;93513.06;5044106;28;20346;-72
2022/08/16 01:23:35;;;;;;;0.83;0.83;;;;;;;18.08;68.59;93512.44;5023146;28;20207;-71
2022/08/16 01:26:20;;;;;;;1.00;0.90;;;;;;;18.03;68.95;93508.00;5047491;28;20285;-71
2022/08/16 01:29:08;;;;;;;0.93;0.90;;;;;;;17.86;69.12;93508.78;5033768;28;20198;-71
2022/08/16 01:31:52;;;;;;;1.13;0.87;;;;;;;17.90;69.39;93506.09;5035170;28;20202;-71
2022/08/16 01:34:37;;;;;;;1.03;0.77;;;;;;;17.75;70.17;93504.13;5044468;28;20216;-71
2022/08/16 01:37:21;;;;;;;1.73;0.77;;;;;;;17.81;70.16;93507.19;5040399;28;20441;-71
2022/08/16 01:40:06;;;;;;;0.73;0.73;;;;;;;17.82;70.02;93505.81;5024326;28;20667;-71
2022/08/16 01:42:52;;;;;;;1.00;0.93;;;;;;;17.89;69.61;93501.09;5050384;28;20206;-71
2022/08/16 01:45:36;;;;;;;2.93;0.97;;;;;;;17.73;69.72;93501.22;5032582;28;20317;-72
2022/08/16 01:48:24;;;;;;;1.30;0.80;;;;;;;17.83;68.91;93495.94;5042576;28;20203;-71
2022/08/16 01:51:10;;;;;;;1.17;1.07;;;;;;;17.87;69.04;93498.91;5052365;28;20203;-72
2022/08/16 01:53:55;;;;;;;1.37;0.87;;;;;;;17.82;69.18;93491.66;5035914;28;20234;-72
2022/08/16 01:56:47;;;;;;;0.70;0.70;;;;;;;17.70;68.55;93486.25;5036048;28;20324;-72
2022/08/16 01:59:33;;;;;;;1.00;0.83;;;;;;;17.70;68.09;93491.19;5018397;28;20277;-72
2022/08/16 02:02:19;;;;;;;2.63;1.10;;;;;;;17.60;68.87;93490.75;5033118;28;20206;-72
2022/08/16 02:05:04;;;;;;;1.90;1.00;;;;;;;17.48;69.04;93491.03;5063648;28;20277;-71
2022/08/16 02:07:48;;;;;;;1.70;1.37;;;;;;;17.34;69.84;93485.53;5042171;28;20647;-72
2022/08/16 02:10:36;;;;;;;4.10;1.27;;;;;;;17.14;70.76;93490.41;5028371;28;20206;-72
2022/08/16 02:13:20;;;;;;;1.23;1.10;;;;;;;17.06;70.84;93484.41;5034942;28;20296;-71
2022/08/16 02:16:05;;;;;;;0.90;0.90;;;;;;;16.86;71.77;93480.75;5036526;28;20577;-72
2022/08/16 02:18:50;;;;;;;3.43;1.00;;;;;;;16.81;72.14;93484.81;5048395;28;20207;-72
2022/08/16 02:21:34;;;;;;;1.20;1.10;;;;;;;16.75;72.38;93485.28;5029625;28;20198;-72
2022/08/16 02:24:18;;;;;;;1.30;1.00;;;;;;;16.64;72.44;93485.50;5036728;28;20226;-72
2022/08/16 02:27:02;;;;;;;1.00;1.00;;;;;;;16.40;73.05;93480.28;5036504;28;20286;-72
2022/08/16 02:29:47;;;;;;;1.03;1.00;;;;;;;16.26;72.98;93490.97;5037421;28;20202;-72
2022/08/16 02:32:33;;;;;;;1.07;0.97;;;;;;;16.19;72.71;93494.91;5030701;28;20206;-72
2022/08/16 02:35:18;;;;;;;2.40;1.17;;;;;;;16.06;72.76;93493.63;5035016;28;20709;-71
2022/08/16 02:38:03;;;;;;;1.30;1.20;;;;;;;15.92;73.62;93493.03;5050246;28;20198;-71
2022/08/16 02:40:48;;;;;;;1.20;1.10;;;;;;;15.87;73.54;93499.09;5037503;28;20199;-72
2022/08/16 02:43:34;;;;;;;1.93;0.97;;;;;;;15.82;73.92;93491.81;5022841;28;20239;-72
2022/08/16 02:46:22;;;;;;;1.33;1.10;;;;;;;15.74;74.45;93495.00;5023090;28;20230;-71
2022/08/16 02:49:07;;;;;;;1.30;0.90;;;;;;;15.69;74.47;93499.03;5040326;28;20268;-71
2022/08/16 02:51:52;;;;;;;2.87;1.17;;;;;;;15.48;74.75;93488.88;5035373;28;20249;-71
2022/08/16 02:54:36;;;;;;;1.40;1.27;;;;;;;15.47;74.66;93493.06;5031441;28;20231;-71
2022/08/16 02:57:22;;;;;;;1.70;1.20;;;;;;;15.52;74.38;93491.91;5051197;28;20294;-71
2022/08/16 03:00:11;;;;;;;1.50;1.13;;;;;;;15.47;74.29;93490.25;5035703;28;20210;-71
2022/08/16 03:02:56;;;;;;;1.10;1.00;;;;;;;15.52;74.31;93482.69;5035745;28;20210;-71
2022/08/16 03:05:41;;;;;;;2.30;1.17;;;;;;;15.53;73.89;93484.16;5046456;28;20222;-71
2022/08/16 03:08:25;;;;;;;1.73;1.33;;;;;;;15.48;74.21;93477.59;5028930;28;20202;-71
2022/08/16 03:11:10;;;;;;;1.60;1.30;;;;;;;15.39;74.58;93484.22;5030829;28;20621;-71
2022/08/16 03:13:55;;;;;;;2.50;1.50;;;;;;;15.18;74.78;93479.72;5034844;28;20900;-71
2022/08/16 03:16:39;;;;;;;2.73;1.10;;;;;;;15.23;74.35;93491.94;5024113;28;20202;-71
2022/08/16 03:19:25;;;;;;;2.13;1.33;;;;;;;15.18;74.03;93476.19;5036117;28;20206;-71
2022/08/16 03:22:10;;;;;;;1.43;1.13;;;;;;;15.10;74.21;93484.25;5033664;28;20206;-71
2022/08/16 03:25:00;;;;;;;2.57;1.10;;;;;;;14.93;75.05;93494.78;5035865;28;20221;-71
2022/08/16 03:27:44;;;;;;;2.70;1.10;;;;;;;14.85;76.44;93500.03;5039624;28;20203;-70
2022/08/16 03:30:34;;;;;;;1.10;1.03;;;;;;;14.98;76.42;93502.06;5022591;28;20220;-70
2022/08/16 03:33:21;;;;;;;2.93;0.97;;;;;;;14.82;76.62;93490.00;5032307;28;20202;-70
2022/08/16 03:36:10;;;;;;;1.00;1.00;;;;;;;14.98;77.83;93490.78;5035715;28;20207;-70
2022/08/16 03:38:58;;;;;;;1.83;1.10;;;;;;;15.20;77.12;93484.72;5041069;28;20208;-70
2022/08/16 03:41:42;;;;;;;1.77;1.10;;;;;;;15.24;77.33;93493.41;5035735;28;20206;-70
2022/08/16 03:44:27;;;;;;;0.90;0.90;;;;;;;15.33;76.51;93492.41;5043819;28;20206;-71
2022/08/16 03:47:11;;;;;;;1.30;1.20;;;;;;;15.08;78.14;93478.50;5033146;28;20228;-71
2022/08/16 03:49:57;;;;;;;5.13;1.03;;;;;;;15.15;78.78;93485.91;5034550;28;20277;-70
2022/08/16 03:52:42;;;;;;;1.40;1.30;;;;;;;15.20;79.52;93487.56;5035373;28;20210;-71
2022/08/16 03:55:27;;;;;;;1.90;1.00;;;;;;;15.22;79.67;93488.38;5029149;28;20230;-71
2022/08/16 03:58:11;;;;;;;2.37;1.40;;;;;;;15.36;78.66;93482.69;5031336;28;20269;-71
2022/08/16 04:00:56;;;;;;;3.50;1.37;;;;;;;15.28;78.82;93488.66;5050640;28;20212;-71
2022/08/16 04:03:40;;;;;;;1.47;1.37;;;;;;;15.18;79.55;93490.28;5031060;28;20248;-70
2022/08/16 04:06:25;;;;;;;2.23;1.30;;;;;;;15.27;79.78;93480.84;5028139;28;20295;-71
2022/08/16 04:09:11;;;;;;;0.97;0.97;;;;;;;15.27;79.63;93486.47;5034996;28;20210;-70
2022/08/16 04:11:56;;;;;;;1.67;1.33;;;;;;;15.37;79.22;93484.13;5021625;28;20238;-70
2022/08/16 04:14:40;;;;;;;1.43;1.33;;;;;;;15.23;80.01;93480.66;5033028;28;20218;-70
2022/08/16 04:17:24;;;;;;;1.30;1.20;;;;;;;15.31;79.78;93481.75;5047685;28;20194;-70
2022/08/16 04:20:10;;;;;;;1.67;1.40;;;;;;;15.38;79.38;93485.56;5031271;28;20198;-70
2022/08/16 04:22:54;;;;;;;1.30;1.20;;;;;;;15.48;78.77;93477.59;5048400;28;20199;-71
2022/08/16 04:25:39;;;;;;;1.23;1.13;;;;;;;15.70;77.90;93487.09;5026699;28;20628;-70
2022/08/16 04:28:25;;;;;;;2.80;1.20;;;;;;;15.61;77.57;93479.63;5022915;28;20216;-71
2022/08/16 04:31:10;;;;;;;1.30;1.20;;;;;;;15.51;77.59;93481.22;5042472;28;20191;-70
2022/08/16 04:33:58;;;;;;;2.07;1.53;;;;;;;15.67;77.69;93488.38;5027949;28;20214;-71
2022/08/16 04:36:42;;;;;;;2.87;1.37;;;;;;;15.73;77.66;93497.13;5035443;28;20198;-71
2022/08/16 04:39:28;;;;;;;1.40;1.13;;;;;;;15.72;77.95;93498.50;5029174;28;20281;-70
2022/08/16 04:42:17;;;;;;;2.63;1.40;;;;;;;15.91;76.75;93496.47;5032529;28;20654;-71
2022/08/16 04:45:03;;;;;;;2.00;1.60;;;;;;;16.00;75.94;93495.47;5032770;28;20675;-70
2022/08/16 04:47:50;;;;;;;1.67;1.33;;;;;;;15.98;76.64;93498.22;5041146;28;20206;-70
2022/08/16 04:50:35;;;;;;;1.60;1.40;;;;;;;16.13;75.42;93508.75;5022976;28;20560;-70
2022/08/16 04:53:28;;;;;;;1.93;1.30;;;;;;;15.80;77.02;93503.06;5031578;28;20226;-70
2022/08/16 04:56:13;;;;;;;1.43;1.30;;;;;;;15.88;76.64;93506.22;5043159;28;20190;-70
2022/08/16 04:58:57;;;;;;;2.67;1.60;;;;;;;16.23;75.23;93502.84;5048937;28;20210;-70
2022/08/16 05:01:42;;;;;;;4.47;1.30;;;;;;;16.53;74.24;93504.88;5031008;28;20206;-70
2022/08/16 05:04:26;;;;;;;1.27;1.17;;;;;;;16.37;74.11;93497.78;5037699;28;20245;-71
2022/08/16 05:07:10;;;;;;;3.20;1.47;;;;;;;16.67;72.40;93506.84;5032863;28;20190;-70
2022/08/16 05:10:13;;;;;;;3.20;1.30;;;;;;;16.98;71.37;93506.72;5034920;28;20277;-70
2022/08/16 05:12:59;;;;;;;2.17;1.57;;;;;;;17.09;70.65;93502.97;5047468;28;20892;-71
2022/08/16 05:15:44;;;;;;;1.40;1.30;;;;;;;17.39;70.16;93504.16;5016282;28;20202;-71
2022/08/16 05:18:28;;;;;;;1.30;1.20;;;;;;;17.26;69.92;93507.16;5038245;28;20202;-70
2022/08/16 05:21:15;;;;;;;1.63;1.53;;;;;;;17.65;69.16;93512.25;5032424;28;20199;-70
2022/08/16 05:24:06;;;;;;;2.07;1.40;;;;;;;17.97;68.11;93512.72;5033975;28;20205;-70
2022/08/16 05:26:50;;;;;;;1.40;1.30;;;;;;;17.84;68.06;93511.53;5038558;28;20575;-70
2022/08/16 05:29:34;;;;;;;2.40;1.40;;;;;;;18.31;67.08;93521.78;5031345;28;20255;-71
2022/08/16 05:32:28;;;;;;;1.43;1.30;;;;;;;18.45;66.40;93519.47;5029613;28;20226;-71
2022/08/16 05:35:13;;;;;;;1.77;1.30;;;;;;;18.37;66.62;93519.88;5031095;28;20227;-71
2022/08/16 05:38:06;;;;;;;1.73;1.37;;;;;;;18.33;66.66;93531.06;5032569;28;20207;-71
2022/08/16 05:40:56;;;;;;;1.87;1.20;;;;;;;18.50;66.33;93521.06;5021720;28;20217;-71
2022/08/16 05:43:40;;;;;;;5.10;1.20;;;;;;;18.31;66.62;93516.84;5037656;28;20187;-71
2022/08/16 05:46:25;;;;;;;1.20;1.20;;;;;;;18.59;65.92;93522.81;5048411;28;20198;-71
2022/08/16 05:49:15;;;;;;;1.83;1.20;;;;;;;18.75;65.00;93522.66;5028056;28;20226;-71
2022/08/16 05:52:00;;;;;;;4.37;1.40;;;;;;;18.99;64.32;93512.13;5034647;28;20567;-71
2022/08/16 05:54:44;;;;;;;1.60;1.43;;;;;;;19.44;63.56;93517.16;5034579;28;20251;-71
2022/08/16 05:57:29;;;;;;;2.37;1.10;;;;;;;19.17;63.08;93520.50;5032510;28;20199;-71
2022/08/16 06:00:14;;;;;;;1.50;1.10;;;;;;;19.27;62.96;93524.41;5033991;28;20199;-72
2022/08/16 06:02:58;;;;;;;1.40;1.30;;;;;;;19.27;62.93;93529.34;5044225;28;20209;-72
2022/08/16 06:06:08;;;;;;;1.67;1.20;;;;;;;19.57;61.82;93521.81;5041443;28;20218;-71
2022/08/16 06:08:52;;;;;;;1.90;1.10;;;;;;;20.25;60.75;93533.81;5036098;28;20205;-70
2022/08/16 06:11:37;;;;;;;3.17;1.47;;;;;;;20.64;59.15;93526.41;5023894;28;20202;-70
2022/08/16 06:14:21;;;;;;;1.77;1.20;;;;;;;20.81;58.78;93528.28;5035513;28;20230;-70
2022/08/16 06:17:05;;;;;;;1.73;1.25;;;;;;;21.00;57.57;93533.78;5040893;28;20226;-70
2022/08/16 06:19:50;;;;;;;1.40;1.13;;;;;;;20.71;58.53;93536.56;5031914;28;20265;-70
2022/08/16 06:22:37;;;;;;;1.38;1.20;;;;;;;21.59;56.75;93531.72;5024156;28;20207;-70
2022/08/16 06:25:23;;;;;;;1.30;1.20;;;;;;;21.16;56.71;93536.38;5035594;28;20202;-70
2022/08/16 06:28:09;;;;;;;1.17;1.08;;;;;;;21.00;56.30;93533.78;5035315;28;20202;-70
2022/08/16 06:30:53;;;;;;;1.63;1.52;;;;;;;21.06;56.69;93536.06;5031423;28;20199;-70
2022/08/16 06:33:39;;;;;;;1.10;1.00;;;;;;;20.93;56.96;93535.03;5037010;28;20360;-68
2022/08/16 06:36:23;;;;;;;1.35;1.25;;;;;;;21.00;56.49;93533.78;5050718;28;20621;-68
2022/08/16 06:39:16;;;;;;;1.35;1.10;;;;;;;21.95;54.60;93531.84;5037236;28;20288;-68
2022/08/16 06:42:23;;;;;;;1.30;1.20;;;;;;;21.90;54.92;93531.03;5047113;28;20198;-68
2022/08/16 06:45:42;;;;;;;1.33;1.23;;;;;;;21.54;56.42;93538.75;5038735;28;20195;-68
2022/08/16 06:48:43;;;;;;;3.72;1.15;;;;;;;21.87;54.99;93538.09;5038455;28;20217;-68
2022/08/16 06:51:27;;;;;;;1.25;1.15;;;;;;;21.45;55.15;93554.19;5031605;28;20252;-68
2022/08/16 06:54:12;;;;;;;1.38;1.27;;;;;;;21.68;55.07;93550.47;5036355;28;20707;-67
2022/08/16 06:56:56;;;;;;;1.23;1.13;;;;;;;21.86;54.90;93553.75;5048254;28;20715;-68
2022/08/16 06:59:40;;;;;;;1.52;1.40;;;;;;;21.99;54.09;93549.81;5033012;28;20206;-68
2022/08/16 07:02:24;;;;;;;1.85;1.45;;;;;;;22.02;53.84;93548.44;5046977;28;20198;-68
2022/08/16 07:05:11;;;;;;;1.30;1.20;;;;;;;22.32;53.11;93544.81;5048890;28;20260;-68
2022/08/16 07:07:56;;;;;;;2.00;1.40;;;;;;;22.41;52.60;93549.28;5034689;28;20195;-69
2022/08/16 07:10:43;;;;;;;3.10;1.20;;;;;;;22.46;51.82;93543.00;5020859;28;20341;-68
2022/08/16 07:13:29;;;;;;;2.13;1.48;;;;;;;22.73;52.17;93541.41;5044695;28;20219;-68
2022/08/16 07:16:15;;;;;;;1.92;1.05;;;;;;;23.01;50.72;93531.94;5028890;28;20194;-68
2022/08/16 07:18:59;;;;;;;1.30;1.20;;;;;;;23.13;50.49;93540.72;5037186;28;20195;-68
2022/08/16 07:21:45;;;;;;;1.40;1.30;;;;;;;23.80;48.16;93539.75;5029558;28;20203;-69
2022/08/16 07:24:30;;;;;;;2.50;1.13;;;;;;;23.65;48.72;93530.22;5030506;28;20191;-68
2022/08/16 07:27:17;;;;;;;1.73;1.35;;;;;;;23.92;47.21;93544.94;5032638;28;20228;-69
2022/08/16 07:30:05;;;;;;;1.20;1.10;;;;;;;24.20;47.11;93533.91;5028545;28;20206;-69
2022/08/16 07:32:49;;;;;;;2.00;1.58;;;;;;;24.05;44.88;93535.13;5029888;28;20198;-68
2022/08/16 07:35:35;;;;;;;1.83;1.42;;;;;;;24.03;45.65;93549.38;5028944;28;20222;-69
2022/08/16 07:38:19;;;;;;;1.60;1.50;;;;;;;24.22;46.28;93542.53;5024409;28;20198;-68
2022/08/16 07:41:10;;;;;;;2.83;1.40;;;;;;;24.15;46.20;93538.13;5032864;28;20217;-68
2022/08/16 07:43:59;;;;;;;2.88;1.90;;;;;;;24.90;43.07;93536.28;5038931;28;20197;-68
2022/08/16 07:46:43;;;;;;;4.63;1.70;;;;;;;24.14;45.08;93536.66;5041689;28;20205;-69
2022/08/16 07:49:36;;;;;;;2.20;1.70;;;;;;;24.43;44.29;93537.81;5029611;28;20213;-68
2022/08/16 07:52:23;;;;;;;3.15;1.77;;;;;;;24.09;44.24;93546.63;5038522;28;20217;-69
2022/08/16 07:55:12;;;;;;;3.35;1.98;;;;;;;24.75;43.85;93548.97;5038867;28;20258;-70
2022/08/16 07:57:57;;;;;;;1.98;1.77;;;;;;;24.38;45.51;93554.22;5033086;28;20199;-68
2022/08/16 08:00:41;;;;;;;2.78;1.83;;;;;;;23.94;45.13;93559.28;5023201;28;20195;-68
2022/08/16 08:03:25;;;;;;;4.88;1.85;;;;;;;23.89;45.27;93560.63;5041217;28;20201;-68
2022/08/16 08:06:11;;;;;;;2.83;2.00;;;;;;;24.37;44.72;93552.78;5033890;28;20224;-68
2022/08/16 08:08:56;;;;;;;1.90;1.73;;;;;;;24.64;44.31;93555.97;5033321;28;20202;-68
2022/08/16 08:11:40;;;;;;;3.08;2.08;;;;;;;24.43;43.10;93560.75;5030390;28;20206;-69
2022/08/16 08:14:27;;;;;;;2.78;1.73;;;;;;;25.38;44.84;93559.00;5032443;28;20233;-68
2022/08/16 08:17:11;;;;;;;6.00;1.55;;;;;;;25.37;44.99;93558.28;5045176;28;20624;-68
2022/08/16 08:19:58;;;;;;;3.13;1.65;;;;;;;25.49;44.52;93559.84;5024429;28;20565;-69
2022/08/16 08:22:47;;;;;;;3.50;1.98;;;;;;;25.34;43.89;93573.31;5043632;28;20210;-68
2022/08/16 08:25:31;;;;;;;2.55;1.73;;;;;;;25.68;43.51;93562.19;5032632;28;20202;-69
2022/08/16 08:28:17;;;;;;;13.57;2.67;;;;;;;25.26;44.39;93562.47;5037318;28;20233;-69
2022/08/16 08:31:02;;;;;;;6.78;2.50;;;;;;;25.50;43.90;93564.13;5032219;28;20198;-69
2022/08/16 08:33:47;;;;;;;4.25;1.90;;;;;;;25.99;43.33;93557.41;5027947;28;20229;-69
2022/08/16 08:36:35;;;;;;;5.70;2.03;;;;;;;26.33;42.91;93562.00;5045060;28;20731;-69
2022/08/16 08:39:51;;;;;;;4.38;2.00;;;;;;;26.17;43.17;93557.53;5014357;28;20202;-68
2022/08/16 08:42:36;;;;;;;3.17;1.80;;;;;;;26.25;43.33;93556.91;5033275;28;20671;-69
2022/08/16 08:45:21;;;;;;;2.97;1.90;;;;;;;25.26;45.25;93565.34;5023685;28;20671;-69
2022/08/16 08:48:06;;;;;;;2.75;1.75;;;;;;;25.81;43.81;93554.41;5048490;28;20209;-69
2022/08/16 08:50:52;;;;;;;2.85;1.80;;;;;;;25.59;42.83;93548.47;5043141;28;20280;-69
2022/08/16 08:53:36;;;;;;;5.15;1.98;;;;;;;25.69;42.46;93551.44;5035861;28;20194;-68
2022/08/16 08:56:21;;;;;;;2.78;2.03;;;;;;;25.34;42.98;93564.72;5040268;28;20194;-70
2022/08/16 08:59:06;;;;;;;2.97;1.88;;;;;;;25.65;42.64;93557.13;5037813;28;20573;-69
2022/08/16 09:01:56;;;;;;;3.40;1.60;;;;;;;25.40;44.23;93559.03;5036076;28;20773;-68
2022/08/16 09:04:44;;;;;;;5.05;2.00;;;;;;;26.41;43.22;93567.78;5039540;28;20230;-69
2022/08/16 09:07:28;;;;;;;4.22;1.88;;;;;;;26.67;41.78;93570.78;5051486;28;20198;-69
2022/08/16 09:10:15;;;;;;;2.95;2.10;;;;;;;25.22;43.96;93571.03;5018934;28;20301;-68
2022/08/16 09:12:59;;;;;;;3.72;1.95;;;;;;;26.02;44.33;93563.91;5012363;28;20296;-69
2022/08/16 09:15:55;;;;;;;3.17;1.92;;;;;;;27.10;41.01;93562.38;5034511;28;20190;-69
2022/08/16 09:18:41;;;;;;;2.97;2.00;;;;;;;26.96;41.01;93560.91;5032858;28;20663;-69
2022/08/16 09:21:25;;;;;;;3.67;1.75;;;;;;;27.16;40.01;93563.13;5035346;28;20198;-69
2022/08/16 09:24:10;;;;;;;4.07;1.90;;;;;;;26.71;41.65;93558.63;5053499;28;20226;-70
2022/08/16 09:26:55;;;;;;;2.00;1.80;;;;;;;26.18;42.00;93556.13;5030241;28;20195;-68
2022/08/16 09:29:39;;;;;;;2.80;1.80;;;;;;;26.85;41.66;93556.50;5046385;28;20195;-69
2022/08/16 09:32:24;;;;;;;2.22;1.70;;;;;;;27.28;38.95;93548.78;5036101;28;20198;-69
2022/08/16 09:35:08;;;;;;;2.47;1.88;;;;;;;27.50;38.62;93550.97;5048294;28;20238;-69
2022/08/16 09:37:53;;;;;;;5.90;1.73;;;;;;;28.02;39.79;93553.19;5052752;28;20217;-70
2022/08/16 09:40:37;;;;;;;3.05;1.70;;;;;;;27.76;40.24;93542.41;5041207;28;20199;-69
2022/08/16 09:43:22;;;;;;;2.70;2.10;;;;;;;27.43;40.32;93552.41;5045084;28;20684;-69
2022/08/16 09:46:06;;;;;;;2.15;1.95;;;;;;;28.26;37.04;93555.38;5049963;28;20202;-69
2022/08/16 09:48:53;;;;;;;5.00;2.10;;;;;;;27.43;39.35;93552.41;5035392;28;20294;-70
2022/08/16 09:51:38;;;;;;;5.22;1.80;;;;;;;27.15;38.98;93552.34;5052005;28;20194;-69
2022/08/16 09:54:24;;;;;;;7.55;2.83;;;;;;;27.67;39.24;93546.72;5050898;28;20233;-70
2022/08/16 09:57:09;;;;;;;4.65;1.90;;;;;;;27.41;38.72;93548.78;5053875;28;20210;-69
2022/08/16 09:59:53;;;;;;;3.03;1.95;;;;;;;25.72;39.86;93544.28;5041054;28;20195;-71
2022/08/16 10:02:40;;;;;;;3.90;2.10;;;;;;;26.02;40.22;93552.41;5029431;28;20212;-70
2022/08/16 10:05:25;;;;;;;3.42;1.90;;;;;;;26.22;41.15;93548.97;5049565;28;20275;-71
2022/08/16 10:08:10;;;;;;;2.35;2.15;;;;;;;26.06;40.88;93541.66;5050552;28;20284;-70
2022/08/16 10:13:57;;;;;;;3.72;2.00;;;;;;;27.55;36.56;93546.69;5051326;28;20250;-70
2022/08/16 10:16:44;;;;;;;3.78;2.30;;;;;;;28.31;36.10;93548.16;5039022;28;20202;-70
2022/08/16 10:19:30;;;;;;;3.92;1.98;;;;;;;28.29;35.33;93542.41;5049641;28;20356;-70
2022/08/16 10:22:14;;;;;;;3.25;1.90;;;;;;;28.36;36.31;93546.72;5050504;28;20232;-71
2022/08/16 10:24:58;;;;;;;2.08;1.90;;;;;;;28.50;35.29;93549.59;5050045;28;20221;-70
2022/08/16 10:27:45;;;;;;;3.92;1.80;;;;;;;28.31;36.13;93545.28;5048755;28;20213;-70
2022/08/16 10:30:29;;;;;;;7.53;2.10;;;;;;;28.63;34.73;93550.28;5051234;28;20206;-68
2022/08/16 10:33:13;;;;;;;2.55;1.83;;;;;;;27.78;35.86;93548.16;5043453;28;20198;-68
2022/08/16 10:35:58;;;;;;;3.50;2.00;;;;;;;27.59;36.15;93540.25;5027007;28;20215;-68
2022/08/16 10:38:42;;;;;;;5.22;2.30;;;;;;;28.06;36.16;93546.72;5043733;28;20198;-68
2022/08/16 10:41:26;;;;;;;5.50;2.15;;;;;;;27.97;34.76;93542.41;5056679;28;20238;-68
2022/08/16 10:44:13;;;;;;;2.45;1.88;;;;;;;27.92;35.72;93546.72;5049841;28;20190;-70
2022/08/16 10:46:57;;;;;;;6.78;2.33;;;;;;;27.88;34.95;93546.72;5052938;28;20206;-69
2022/08/16 10:49:41;;;;;;;3.05;1.80;;;;;;;29.05;34.24;93558.09;5035911;28;20213;-70
2022/08/16 10:52:25;;;;;;;3.50;2.00;;;;;;;28.10;33.05;93553.19;5049908;28;20225;-69
2022/08/16 10:55:11;;;;;;;2.60;2.05;;;;;;;28.39;35.49;93551.03;5041707;28;20254;-69
2022/08/16 10:57:55;;;;;;;2.40;1.98;;;;;;;28.58;35.02;93549.53;5047533;28;20203;-70
2022/08/16 11:00:39;;;;;;;2.65;2.08;;;;;;;28.16;35.98;93553.22;5031086;28;20211;-70
2022/08/16 11:03:25;;;;;;;3.15;2.00;;;;;;;28.25;35.23;93548.19;5041457;28;20206;-69
2022/08/16 11:06:09;;;;;;;3.67;1.88;;;;;;;28.18;33.25;93552.50;5050639;28;20218;-70
2022/08/16 11:08:54;;;;;;;4.45;2.13;;;;;;;28.77;33.76;93553.13;5035587;28;20285;-69
2022/08/16 11:11:39;;;;;;;6.72;4.93;;;;;;;28.54;33.01;93552.44;5045893;28;20243;-69
2022/08/16 11:14:23;;;;;;;4.07;1.98;;;;;;;28.50;34.40;93549.59;5042264;28;20234;-69
2022/08/16 11:17:09;;;;;;;4.32;1.88;;;;;;;29.68;33.14;93554.88;5045399;28;20206;-69
2022/08/16 11:19:53;;;;;;;2.53;1.80;;;;;;;29.51;32.88;93547.75;5049616;28;20641;-70
2022/08/16 11:22:39;;;;;;;2.40;2.08;;;;;;;28.79;34.78;93549.53;5047394;28;20679;-70
2022/08/16 11:25:25;;;;;;;3.95;2.15;;;;;;;29.13;32.82;93552.25;5050740;28;20191;-70
2022/08/16 11:28:09;;;;;;;5.40;1.83;;;;;;;28.84;33.42;93545.91;5051586;28;20194;-69
2022/08/16 11:30:53;;;;;;;5.53;2.60;;;;;;;28.48;33.58;93551.72;5035862;28;20208;-70
2022/08/16 11:33:38;;;;;;;3.00;1.90;;;;;;;29.07;33.93;93555.16;5044718;28;20229;-70
2022/08/16 11:36:22;;;;;;;2.58;1.85;;;;;;;28.30;32.43;93543.84;5050419;28;20202;-70
2022/08/16 11:39:06;;;;;;;5.03;1.70;;;;;;;29.61;32.00;93547.72;5049237;28;20650;-70
2022/08/16 11:41:51;;;;;;;2.92;1.88;;;;;;;30.00;30.81;93537.31;5051339;28;20202;-70
2022/08/16 11:44:35;;;;;;;4.47;2.00;;;;;;;30.05;30.27;93541.63;5043599;28;20205;-69
2022/08/16 11:47:19;;;;;;;2.53;1.75;;;;;;;29.20;32.68;93539.25;5055416;28;20570;-70
2022/08/16 11:50:07;;;;;;;2.47;1.75;;;;;;;28.80;32.97;93533.66;5050320;28;20285;-69
2022/08/16 11:52:51;;;;;;;1.70;1.60;;;;;;;29.16;31.19;93545.03;5048694;28;20198;-69
2022/08/16 11:55:37;;;;;;;2.67;1.67;;;;;;;29.68;31.52;93534.66;5033498;28;20219;-69
2022/08/16 11:58:23;;;;;;;3.00;2.25;;;;;;;29.89;30.53;93541.72;5050182;28;20277;-69
2022/08/16 12:01:07;;;;;;;3.92;2.17;;;;;;;29.31;29.16;93537.75;5049616;28;20194;-69
2022/08/16 12:03:51;;;;;;;2.85;1.88;;;;;;;29.90;29.61;93534.50;5046444;28;20285;-69
2022/08/16 12:06:36;;;;;;;1.80;1.70;;;;;;;29.72;29.23;93534.63;5035230;28;20244;-69
2022/08/16 12:09:22;;;;;;;4.10;1.60;;;;;;;29.84;28.99;93531.66;5041026;28;20194;-69
2022/08/16 12:12:08;;;;;;;3.67;1.40;;;;;;;30.19;29.29;93528.50;5036270;28;20241;-69
2022/08/16 12:14:52;;;;;;;5.28;1.80;;;;;;;30.34;27.88;93536.31;5043345;28;20222;-69
2022/08/16 12:17:37;;;;;;;4.22;1.90;;;;;;;29.76;28.48;93526.66;5049455;28;20194;-69
2022/08/16 12:20:26;;;;;;;3.67;1.75;;;;;;;29.37;28.32;93527.66;5039001;28;20301;-69
2022/08/16 12:23:10;;;;;;;2.65;1.58;;;;;;;29.23;28.47;93526.25;5046450;28;20201;-71
2022/08/16 12:25:56;;;;;;;3.97;1.58;;;;;;;29.28;28.07;93527.66;5047746;28;20207;-69
2022/08/16 12:28:41;;;;;;;5.32;1.55;;;;;;;29.86;28.20;93525.88;5063575;28;20292;-70
2022/08/16 12:31:25;;;;;;;1.63;1.30;;;;;;;30.08;29.00;93524.97;5041630;28;20663;-70
2022/08/16 12:34:10;;;;;;;1.83;1.25;;;;;;;30.26;27.42;93521.19;5049382;28;20713;-70
2022/08/16 12:36:54;;;;;;;2.28;1.45;;;;;;;30.47;28.48;93528.22;5037392;28;20198;-69
2022/08/16 12:39:39;;;;;;;4.82;1.20;;;;;;;30.59;27.50;93521.63;5045120;28;20202;-70
2022/08/16 12:42:25;;;;;;;2.75;1.55;;;;;;;31.04;27.69;93516.78;5033711;28;20305;-70
2022/08/16 12:45:12;;;;;;;1.55;1.30;;;;;;;30.53;27.48;93519.53;5045617;28;20190;-70
2022/08/16 12:50:59;;;;;;;4.80;1.65;;;;;;;29.59;28.91;93518.84;5049233;28;20197;-70
2022/08/16 12:53:43;;;;;;;3.08;1.70;;;;;;;29.80;28.97;93517.25;5016305;28;20199;-69
2022/08/16 12:56:32;;;;;;;1.95;1.73;;;;;;;30.37;28.49;93514.59;5046390;28;20202;-69
2022/08/16 12:59:18;;;;;;;2.05;1.70;;;;;;;30.54;28.23;93518.06;5032180;28;20268;-70
2022/08/16 13:02:03;;;;;;;1.65;1.48;;;;;;;30.22;29.92;93513.28;5047183;28;20778;-69
2022/08/16 13:04:48;;;;;;;3.58;1.65;;;;;;;30.12;27.96;93519.16;5036656;28;20218;-69
2022/08/16 13:07:32;;;;;;;2.38;1.50;;;;;;;30.39;29.08;93505.91;5040928;28;20217;-69